Messwerte Port Said

Temperatur

Temperatur
°C
1574384400 3.00 3.00 20
1574388000 4.00 4.00 17
1574391600 5.00 5.00 18
1574395200 6.00 6.00 17
1574398800 7.00 7.00 18
1574402400 8.00 8.00 19
1574406000 9.00 9.00 19
1574409600 10.00 10.00 21
1574413200 11.00 11.00 22
1574416800 12.00 12.00 22
1574420400 13.00 13.00 22
1574424000 14.00 14.00 22
1574427600 15.00 15.00
1574431200 16.00 16.00 22
1574434800 17.00 17.00 21
1574438400 18.00 18.00 21
1574442000 19.00 19.00 21
1574445600 20.00 20.00
1574449200 21.00 21.00 21
1574452800 22.00 22.00 21
1574456400 23.00 23.00 21
1574460000 0.00 0.00 21
1574463600 1.00 1.00 20
1574467200 2.00 2.00 20

Aktuellste Messwerte

Wettercharakter
Wetter: meist klar
Temperatur
19 °C
Feuchtigkeit
80 %
Wind
5 km/hWindrichtung: Südwest
Luftdruck
1017 hPa
Messzeit: 23. November 2019, 3.00Datenquelle: METAR

Weitere Messstationen in der Nähe

Messstation Temperatur Entfernung
Ismalia - 78 km
Kairo 16 °C 150 km
Alexandria 15 °C 217 km
Alexandria Borg El Arab 14 °C 244 km
Tel Aviv-Jaffa 13 °C 265 km
Haifa - 315 km
Aqaba 15 °C 328 km

Wind

Windrichtung Böen Mittelwind
° km/h km/h
1574384400 3.00 2.00 - 3.00 0
1574388000 4.00 3.00 - 4.00 50° 5
1574391600 5.00 4.00 - 5.00 60° 10
1574395200 6.00 5.00 - 6.00 60° 15
1574398800 7.00 6.00 - 7.00 50° 15
1574402400 8.00 7.00 - 8.00 60° 20
1574406000 9.00 8.00 - 9.00 0
1574409600 10.00 9.00 - 10.00 0
1574413200 11.00 10.00 - 11.00 280° 5
1574416800 12.00 11.00 - 12.00 280° 10
1574420400 13.00 12.00 - 13.00 260° 5
1574424000 14.00 13.00 - 14.00 320° 15
1574427600 15.00 14.00 - 15.00
1574431200 16.00 15.00 - 16.00 350° 20
1574434800 17.00 16.00 - 17.00 350° 20
1574438400 18.00 17.00 - 18.00 230° 5
1574442000 19.00 18.00 - 19.00 350° 15
1574445600 20.00 19.00 - 20.00
1574449200 21.00 20.00 - 21.00 350° 10
1574452800 22.00 21.00 - 22.00 340° 10
1574456400 23.00 22.00 - 23.00 330° 10
1574460000 0.00 23.00 - 0.00 240° 10
1574463600 1.00 0.00 - 1.00 330° 10
1574467200 2.00 1.00 - 2.00 0

Ihre Wetterstation

Fehlt Ihre Wetterstation auf unserem Portal?

Schreiben Sie an network@meteonews.ch

Klima

Wann ist es am wärmsten? Wann regnet es am wenigsten? Unsere Klimadaten geben Auskunft.